Decoded Metar for UMOO (MOGILEV in BELARUS) (IATA:N/A) | Meteo·Mobile Aviation Weather
aviador You're here:

UMOO Decoded Metar

MOGILEV in BELARUS
Report Time2018-08-18 07:30:00
UTC Time2018-08-18 08:05:34
Flight Rules vfr VFR
WindVRB at 2 kt
Visibility9999 m
Phenomena:N/A
Clouds:Broken 045 Hf
Expected CloudBase > 1,600 ft AGL from Temp-Dew spread
Ceiling4,500 ft
Temp18°C (ISA +4)
Dew Point14°C (78% RH)
QNH1020 hPa
Density Alt1,115 ft
Elevation636 ft
Report Wrong Elevation
Raw Report
UMOO 180730Z VRB01MPS 9999 BKN045 OVC/// 18/14 Q1020 R13/CLRD//
NOSIG=

Extra information for UMOO:More info

Metar Taf Metar & Taf Last 4 Metars F.Rules Stats Wind Profile Meteogram Temp Stats Airport Information Weather charts Add Link Nearby VenuesMetar ALERT Operation Metar Decoded Social comments